Time;durP1;ratioP1;P1;durP2;ratioP2;P2;SDS_P1;SDS_P2;PMS_P1;PMS_P2;Temp;Humidity;BMP_temperature;BMP_pressure;BME280_temperature;BME280_humidity;BME280_pressure;Samples;Min_cycle;Max_cycle;Signal;HPM_P1;HPM_P2
2022/05/22 00:02:07;;;;;;;2.38;1.10;;;21.50;92.10;;;;;;6225725;23;20007;-50
2022/05/22 00:04:34;;;;;;;2.40;1.08;;;21.80;92.20;;;;;;6225766;23;19996;-49
2022/05/22 00:06:59;;;;;;;2.97;0.93;;;21.40;92.20;;;;;;6216001;23;20093;-49
2022/05/22 00:09:28;;;;;;;2.13;0.98;;;;;;;;;;6225711;23;20004;-52
2022/05/22 00:11:54;;;;;;;2.17;1.08;;;21.60;92.30;;;;;;6215680;23;20601;-50
2022/05/22 00:14:21;;;;;;;4.03;1.33;;;21.40;92.20;;;;;;6225707;23;19996;-49
2022/05/22 00:16:47;;;;;;;5.65;1.27;;;21.90;92.30;;;;;;6215931;23;20004;-49
2022/05/22 00:19:18;;;;;;;1.27;0.82;;;21.20;92.30;;;;;;6225595;23;20024;-48
2022/05/22 00:21:44;;;;;;;2.35;1.15;;;;;;;;;;6215893;23;20001;-50
2022/05/22 00:24:12;;;;;;;4.35;1.08;;;21.70;72.10;;;;;;6225511;23;20375;-48
2022/05/22 00:26:38;;;;;;;3.05;1.23;;;21.70;57.30;;;;;;6225224;23;20145;-53
2022/05/22 00:29:05;;;;;;;4.30;1.20;;;21.70;57.00;;;;;;6215909;23;20075;-49
2022/05/22 00:31:31;;;;;;;2.22;0.90;;;;;;;;;;6225430;23;20058;-49
2022/05/22 00:33:57;;;;;;;2.28;1.00;;;21.60;92.70;;;;;;6225448;23;20004;-50
2022/05/22 00:36:23;;;;;;;2.10;1.00;;;21.90;92.50;;;;;;6225423;23;20001;-50
2022/05/22 00:38:49;;;;;;;2.35;0.88;;;;;;;;;;6225388;23;20003;-49
2022/05/22 00:41:15;;;;;;;2.83;1.20;;;21.90;92.30;;;;;;6215321;23;20080;-53
2022/05/22 00:43:53;;;;;;;2.47;1.08;;;22.00;92.40;;;;;;6225378;23;20328;-50
2022/05/22 00:46:20;;;;;;;2.28;0.90;;;21.70;59.00;;;;;;6225362;23;19996;-54
2022/05/22 00:48:50;;;;;;;3.90;1.23;;;21.70;59.30;;;;;;6225272;23;20379;-48
2022/05/22 00:51:40;;;;;;;2.90;1.20;;;21.70;92.40;;;;;;6225341;23;20094;-50
2022/05/22 00:54:20;;;;;;;3.33;1.02;;;21.70;55.20;;;;;;6225308;23;20011;-49
2022/05/22 00:56:51;;;;;;;2.20;0.93;;;21.60;58.80;;;;;;6225248;23;20431;-49
2022/05/22 00:59:25;;;;;;;2.40;1.00;;;21.30;92.10;;;;;;6225095;23;20087;-49
2022/05/22 01:01:53;;;;;;;3.28;1.20;;;21.40;92.10;;;;;;6225299;23;20001;-50
2022/05/22 01:04:25;;;;;;;3.00;1.02;;;21.90;92.10;;;;;;6225109;23;19999;-50
2022/05/22 01:06:51;;;;;;;1.80;0.90;;;21.60;92.00;;;;;;6215192;23;20345;-51
2022/05/22 01:09:17;;;;;;;3.30;1.20;;;;;;;;;;6215338;23;20004;-51
2022/05/22 01:11:44;;;;;;;3.17;0.98;;;21.70;92.00;;;;;;6225109;23;20361;-49
2022/05/22 01:14:13;;;;;;;2.85;0.93;;;21.70;58.50;;;;;;6225068;23;20001;-49
2022/05/22 01:16:39;;;;;;;2.87;1.03;;;21.80;92.10;;;;;;6215318;23;20344;-49
2022/05/22 01:19:31;;;;;;;1.85;0.90;;;21.30;91.60;;;;;;6224890;23;20000;-50
2022/05/22 01:22:12;;;;;;;2.85;1.30;;;21.50;92.00;;;;;;6208213;23;20079;-49
2022/05/22 01:24:39;;;;;;;1.95;1.00;;;;;;;;;;6215305;23;20000;-49
2022/05/22 01:27:09;;;;;;;2.38;1.00;;;21.50;92.00;;;;;;6214832;23;20009;-50
2022/05/22 01:29:34;;;;;;;2.60;1.05;;;21.40;92.00;;;;;;6224870;23;19993;-50
2022/05/22 01:32:00;;;;;;;3.78;1.02;;;;;;;;;;6224699;23;20047;-48
2022/05/22 01:34:26;;;;;;;3.03;1.10;;;;;;;;;;6224828;23;20086;-49
2022/05/22 01:36:52;;;;;;;3.58;1.23;;;;;;;;;;6215141;23;20008;-50
2022/05/22 01:39:18;;;;;;;1.85;1.05;;;;;;;;;;6224673;23;20000;-49
2022/05/22 01:41:44;;;;;;;1.98;1.20;;;;;;;;;;6215005;23;20339;-49
2022/05/22 01:44:10;;;;;;;1.55;0.90;;;;;;;;;;6224849;23;20047;-56
2022/05/22 01:46:36;;;;;;;2.55;0.82;;;;;;;;;;6215100;23;20008;-53
2022/05/22 01:49:02;;;;;;;3.33;1.08;;;;;;;;;;6187993;23;20004;-55
2022/05/22 01:51:34;;;;;;;2.65;1.02;;;21.50;58.50;;;;;;6224689;23;19997;-55
2022/05/22 01:54:01;;;;;;;2.58;1.10;;;;;;;;;;6224703;23;19997;-55
2022/05/22 01:56:28;;;;;;;3.83;1.10;;;21.50;92.10;;;;;;6214607;23;20440;-54
2022/05/22 01:58:54;;;;;;;2.92;1.30;;;;;;;;;;6224650;23;20008;-56
2022/05/22 02:01:20;;;;;;;2.10;1.00;;;;;;;;;;6224731;23;20364;-49
2022/05/22 02:03:46;;;;;;;4.18;1.40;;;;;;;;;;6214517;23;20000;-49
2022/05/22 02:06:12;;;;;;;3.38;1.20;;;;;;;;;;6224587;23;20003;-49
2022/05/22 02:08:39;;;;;;;2.70;1.08;;;;;;;;;;6224660;23;19996;-50
2022/05/22 02:11:06;;;;;;;4.63;1.27;;;21.60;58.30;;;;;;6224697;23;20028;-48
2022/05/22 02:13:35;;;;;;;3.53;1.10;;;21.60;58.20;;;;;;6224662;23;20048;-50
2022/05/22 02:16:01;;;;;;;1.33;0.85;;;21.20;91.50;;;;;;6214589;23;20084;-49
2022/05/22 02:18:26;;;;;;;1.63;0.90;;;21.70;91.70;;;;;;6224696;23;20031;-50
2022/05/22 02:20:52;;;;;;;3.75;1.52;;;;;;;;;;6224537;23;20051;-55
2022/05/22 02:23:19;;;;;;;3.67;1.15;;;21.40;57.70;;;;;;6224573;23;20001;-56
2022/05/22 02:25:51;;;;;;;2.45;1.08;;;21.50;91.60;;;;;;6224640;23;20036;-55
2022/05/22 02:28:17;;;;;;;2.72;1.20;;;21.70;91.60;;;;;;6224507;23;20079;-56
2022/05/22 02:30:47;;;;;;;4.40;1.38;;;21.40;91.60;;;;;;6224508;23;19997;-55
2022/05/22 02:33:13;;;;;;;4.53;1.30;;;21.50;91.50;;;;;;6224939;23;20032;-55
2022/05/22 02:35:40;;;;;;;3.53;1.45;;;21.40;91.60;;;;;;6214845;23;19997;-55
2022/05/22 02:38:05;;;;;;;3.83;1.10;;;21.50;91.70;;;;;;6224482;23;20486;-49
2022/05/22 02:40:33;;;;;;;3.58;1.25;;;21.40;91.70;;;;;;6224451;23;20004;-50
2022/05/22 02:43:00;;;;;;;1.65;1.20;;;21.50;91.80;;;;;;6214747;23;20328;-49
2022/05/22 02:45:29;;;;;;;4.22;1.45;;;21.30;91.80;;;;;;6224528;23;20339;-49
2022/05/22 02:47:55;;;;;;;2.60;1.30;;;21.40;91.90;;;;;;6214444;23;20493;-50
2022/05/22 02:50:24;;;;;;;2.13;1.17;;;21.60;92.00;;;;;;6224452;23;20079;-50
2022/05/22 02:52:50;;;;;;;2.95;0.93;;;21.00;91.70;;;;;;6224455;23;20055;-50
2022/05/22 02:55:17;;;;;;;3.10;1.25;;;;;;;;;;6224468;23;20001;-57
2022/05/22 02:57:43;;;;;;;4.93;1.48;;;;;;;;;;6224573;23;19997;-50
2022/05/22 03:00:16;;;;;;;2.92;1.17;;;21.50;91.90;;;;;;6224287;23;20038;-49
2022/05/22 03:02:42;;;;;;;3.42;1.20;;;;;;;;;;6187854;23;20001;-50
2022/05/22 03:05:08;;;;;;;1.65;0.90;;;21.40;92.00;;;;;;6224316;23;20059;-48
2022/05/22 03:07:37;;;;;;;2.17;0.90;;;21.60;92.20;;;;;;6224431;23;20175;-53
2022/05/22 03:10:10;;;;;;;2.25;1.00;;;21.30;78.00;;;;;;6214175;23;20408;-51
2022/05/22 03:12:35;;;;;;;2.63;0.95;;;21.60;92.40;;;;;;6224447;23;20001;-49
2022/05/22 03:15:04;;;;;;;3.72;1.10;;;21.20;92.10;;;;;;6224397;23;20024;-50
2022/05/22 03:17:30;;;;;;;2.33;1.13;;;21.60;92.30;;;;;;6224377;23;19993;-50
2022/05/22 03:19:55;;;;;;;3.70;1.05;;;21.60;92.30;;;;;;6224242;23;20012;-50
2022/05/22 03:22:22;;;;;;;1.35;0.98;;;21.40;92.40;;;;;;6224305;23;20389;-50
2022/05/22 03:24:48;;;;;;;2.03;1.20;;;21.60;92.40;;;;;;6214185;23;19997;-50
2022/05/22 03:27:15;;;;;;;3.15;1.30;;;21.40;92.20;;;;;;6223926;23;20019;-49
2022/05/22 03:29:43;;;;;;;2.75;1.10;;;21.40;92.20;;;;;;6215866;23;20001;-49
2022/05/22 03:32:09;;;;;;;3.50;1.30;;;;;;;;;;6226018;23;20111;-52
2022/05/22 03:34:35;;;;;;;4.63;1.48;;;20.90;92.10;;;;;;6216353;23;20000;-55
2022/05/22 03:37:01;;;;;;;2.20;1.27;;;20.90;92.20;;;;;;6226028;23;19996;-55
2022/05/22 03:39:27;;;;;;;3.75;1.00;;;21.50;92.40;;;;;;6225801;23;20005;-56
2022/05/22 03:41:53;;;;;;;3.00;1.38;;;;;;;;;;6216269;23;20324;-53
2022/05/22 03:44:19;;;;;;;3.88;1.55;;;21.30;92.50;;;;;;6216143;23;20001;-55
2022/05/22 03:46:45;;;;;;;2.65;1.00;;;21.50;92.70;;;;;;6225977;23;20054;-56
2022/05/22 03:49:11;;;;;;;3.53;1.50;;;21.20;92.40;;;;;;6225895;23;20031;-55
2022/05/22 03:51:42;;;;;;;2.80;1.55;;;21.50;92.30;;;;;;6226008;23;20425;-55
2022/05/22 03:54:09;;;;;;;;;;;21.20;55.50;;;;;;6216330;23;20435;-55
2022/05/22 03:56:37;;;;;;;5.05;1.20;;;21.50;92.30;;;;;;6215806;23;19904;-56
2022/05/22 03:59:02;;;;;;;2.90;1.48;;;21.30;92.00;;;;;;6225706;23;20321;-55
2022/05/22 04:01:28;;;;;;;4.40;1.20;;;21.30;57.00;;;;;;6225787;23;20031;-56
2022/05/22 04:03:56;;;;;;;2.20;1.05;;;;;;;;;;6225822;23;20064;-55
2022/05/22 04:06:21;;;;;;;3.30;1.35;;;21.20;92.10;;;;;;6225737;23;20075;-55
2022/05/22 04:08:47;;;;;;;2.25;1.20;;;21.40;92.30;;;;;;6225748;23;20027;-51
2022/05/22 04:11:18;;;;;;;3.67;1.50;;;21.20;92.00;;;;;;6225816;23;19992;-49
2022/05/22 04:13:44;;;;;;;5.10;1.33;;;;;;;;;;6216063;23;20007;-50
2022/05/22 04:16:10;;;;;;;2.40;1.10;;;;;;;;;;6225550;23;19997;-48
2022/05/22 04:18:36;;;;;;;1.83;0.98;;;;;;;;;;6225629;23;19996;-48
2022/05/22 04:21:03;;;;;;;1.95;1.27;;;;;;;;;;6225584;23;20088;-50
2022/05/22 04:26:13;;;;;;;2.20;1.10;;;21.20;92.20;;;;;;6225380;23;20088;-51
2022/05/22 04:28:40;;;;;;;1.35;0.90;;;21.30;92.30;;;;;;6225658;23;20036;-55
2022/05/22 04:31:06;;;;;;;2.60;1.30;;;;;;;;;;6215741;23;20004;-55
2022/05/22 04:33:32;;;;;;;2.08;1.27;;;21.20;92.20;;;;;;6225491;23;19996;-55
2022/05/22 04:35:59;;;;;;;3.03;0.93;;;21.20;58.90;;;;;;6225456;23;19992;-54
2022/05/22 04:38:25;;;;;;;2.03;1.02;;;;;;;;;;6188730;23;20050;-55
2022/05/22 04:40:59;;;;;;;3.00;1.27;;;21.40;92.30;;;;;;6215314;23;20016;-54
2022/05/22 04:43:27;;;;;;;3.55;1.20;;;21.20;92.20;;;;;;6215276;23;20499;-54
2022/05/22 04:45:53;;;;;;;1.63;0.85;;;;;;;;;;6225385;23;20069;-55
2022/05/22 04:48:19;;;;;;;4.22;1.45;;;;;;;;;;6225342;23;19997;-55
2022/05/22 04:50:46;;;;;;;2.38;0.95;;;21.20;92.30;;;;;;6215516;23;20352;-52
2022/05/22 04:53:13;;;;;;;2.55;1.20;;;21.20;57.40;;;;;;6215480;23;20027;-55
2022/05/22 04:55:39;;;;;;;2.17;1.10;;;21.20;92.10;;;;;;6215274;23;19993;-56
2022/05/22 04:58:04;;;;;;;3.22;1.08;;;21.30;92.20;;;;;;6225167;23;20000;-55
2022/05/22 05:00:30;;;;;;;2.72;1.10;;;;;;;;;;6225036;23;20466;-55
2022/05/22 05:02:56;;;;;;;2.05;1.17;;;;;;;;;;6225245;23;20023;-55
2022/05/22 05:05:22;;;;;;;2.03;1.00;;;;;;;;;;6225222;23;19996;-48
2022/05/22 05:07:48;;;;;;;1.67;1.00;;;;;;;;;;6225141;23;19996;-49
2022/05/22 05:10:14;;;;;;;2.13;1.10;;;;;;;;;;6215072;23;20032;-49
2022/05/22 05:12:42;;;;;;;2.60;1.20;;;21.10;59.00;;;;;;6225014;23;20001;-48
2022/05/22 05:15:10;;;;;;;3.22;1.20;;;21.20;92.50;;;;;;6225058;23;20060;-50
2022/05/22 05:17:35;;;;;;;2.35;1.15;;;21.00;92.50;;;;;;6224898;23;20004;-50
2022/05/22 05:20:01;;;;;;;2.85;1.27;;;;;;;;;;6224942;23;20020;-49
2022/05/22 05:22:30;;;;;;;2.47;1.17;;;21.20;59.50;;;;;;6224916;23;19993;-55
2022/05/22 05:24:56;;;;;;;2.13;1.00;;;;;;;;;;6225007;23;20027;-49
2022/05/22 05:27:22;;;;;;;4.78;1.10;;;;;;;;;;6224609;23;20013;-51
2022/05/22 05:29:48;;;;;;;3.72;1.10;;;;;;;;;;6224828;23;20001;-49
2022/05/22 05:32:21;;;;;;;2.50;1.20;;;21.10;59.70;;;;;;6224845;23;20008;-49
2022/05/22 05:34:47;;;;;;;5.25;1.20;;;20.80;92.80;;;;;;6224887;23;19993;-48
2022/05/22 05:37:13;;;;;;;2.20;1.17;;;21.30;92.90;;;;;;6224910;23;20008;-48
2022/05/22 05:39:38;;;;;;;2.15;1.38;;;21.30;92.90;;;;;;6224763;23;19997;-50
2022/05/22 05:42:04;;;;;;;3.33;0.90;;;21.20;78.90;;;;;;6224972;23;19992;-54
2022/05/22 05:44:33;;;;;;;2.78;1.27;;;21.20;59.50;;;;;;6224871;23;20019;-55
2022/05/22 05:46:59;;;;;;;2.65;1.10;;;21.40;92.70;;;;;;6214628;23;19993;-56
2022/05/22 05:49:25;;;;;;;2.70;1.20;;;;;;;;;;6224826;23;20071;-55
2022/05/22 05:51:51;;;;;;;2.55;1.10;;;;;;;;;;6214669;23;20076;-54
2022/05/22 05:54:16;;;;;;;3.20;1.23;;;21.30;90.60;;;;;;6224767;23;20020;-54
2022/05/22 05:56:42;;;;;;;2.85;1.35;;;;;;;;;;6224704;23;20009;-55
2022/05/22 05:59:08;;;;;;;1.45;0.93;;;;;;;;;;6224691;23;19993;-49
2022/05/22 06:01:35;;;;;;;3.25;1.10;;;21.10;59.50;;;;;;6224781;23;20008;-54
2022/05/22 06:04:01;;;;;;;1.92;1.00;;;;;;;;;;6224644;23;19996;-56
2022/05/22 06:06:27;;;;;;;2.67;1.30;;;20.70;92.40;;;;;;6224723;23;19997;-55
2022/05/22 06:08:53;;;;;;;2.90;1.20;;;;;;;;;;6224599;23;20063;-54
2022/05/22 06:11:19;;;;;;;2.55;1.40;;;21.20;57.60;;;;;;6214915;23;20028;-56
2022/05/22 06:13:45;;;;;;;2.70;1.10;;;21.30;92.60;;;;;;6224568;23;19996;-55
2022/05/22 06:16:11;;;;;;;2.78;1.02;;;;;;;;;;6224610;23;20004;-56
2022/05/22 06:18:37;;;;;;;3.13;1.17;;;21.20;92.80;;;;;;6214892;23;20028;-50
2022/05/22 06:21:16;;;;;;;2.38;0.93;;;20.90;90.60;;;;;;6224498;23;20075;-52
2022/05/22 06:23:42;;;;;;;1.10;0.82;;;;;;;;;;6214914;23;20372;-51
2022/05/22 06:26:08;;;;;;;3.92;1.42;;;21.00;92.70;;;;;;6224436;23;20031;-49
2022/05/22 06:28:35;;;;;;;2.85;1.05;;;;;;;;;;6224390;23;20027;-49
2022/05/22 06:31:01;;;;;;;4.97;1.20;;;21.10;92.40;;;;;;6214386;23;20428;-49
2022/05/22 06:33:28;;;;;;;2.55;0.90;;;21.20;92.60;;;;;;6224619;23;20003;-49
2022/05/22 06:35:54;;;;;;;2.35;1.02;;;21.40;92.50;;;;;;6214815;23;20074;-50
2022/05/22 06:41:06;;;;;;;2.78;1.20;;;21.40;59.40;;;;;;6224492;23;20339;-51
2022/05/22 06:43:32;;;;;;;3.40;0.90;;;;;;;;;;6214317;23;20088;-50
2022/05/22 06:45:57;;;;;;;2.30;1.17;;;21.50;92.60;;;;;;6224428;23;20000;-49
2022/05/22 06:48:23;;;;;;;1.73;0.95;;;20.80;92.30;;;;;;6214770;23;20020;-50
2022/05/22 06:50:49;;;;;;;1.70;1.00;;;;;;;;;;6224461;23;20336;-50
2022/05/22 06:53:15;;;;;;;2.00;0.90;;;21.20;92.50;;;;;;6214277;23;20000;-49
2022/05/22 06:55:41;;;;;;;1.77;0.98;;;;;;;;;;6214676;23;20001;-48
2022/05/22 06:58:07;;;;;;;1.98;0.90;;;;;;;;;;6224400;23;20008;-48
2022/05/22 07:00:33;;;;;;;2.92;1.00;;;;;;;;;;6224205;23;20440;-49
2022/05/22 07:02:59;;;;;;;2.47;0.82;;;;;;;;;;6215314;23;20073;-48
2022/05/22 07:05:26;;;;;;;3.80;1.00;;;21.70;91.10;;;;;;6226251;23;20019;-50
2022/05/22 07:07:52;;;;;;;5.57;1.02;;;;;;;;;;6216136;23;19997;-49
2022/05/22 07:10:18;;;;;;;4.60;0.98;;;;;;;;;;6226194;23;20000;-50
2022/05/22 07:12:44;;;;;;;2.67;1.00;;;;;;;;;;6216501;23;20007;-49
2022/05/22 07:15:11;;;;;;;4.53;1.13;;;21.80;62.20;;;;;;6216109;23;20005;-49
2022/05/22 07:17:38;;;;;;;4.95;1.48;;;21.60;60.00;;;;;;6226254;23;20047;-49
2022/05/22 07:20:05;;;;;;;3.90;1.27;;;21.50;60.00;;;;;;6225923;23;19997;-49
2022/05/22 07:22:31;;;;;;;4.30;1.70;;;;;;;;;;6226047;23;20000;-49
2022/05/22 07:24:57;;;;;;;1.98;1.08;;;;;;;;;;6216282;23;20028;-53
2022/05/22 07:27:23;;;;;;;1.58;0.75;;;;;;;;;;6215755;23;20020;-53
2022/05/22 07:29:49;;;;;;;2.80;1.00;;;;;;;;;;6216259;23;20001;-50
2022/05/22 07:32:15;;;;;;;2.53;1.08;;;21.80;92.70;;;;;;6226070;23;20015;-50
2022/05/22 07:34:42;;;;;;;2.95;1.10;;;;;;;;;;6226124;23;20075;-58
2022/05/22 07:37:10;;;;;;;4.65;1.10;;;21.60;59.70;;;;;;6215708;23;20027;-55
2022/05/22 07:39:36;;;;;;;3.15;1.00;;;21.50;57.70;;;;;;6225555;23;20467;-56
2022/05/22 07:42:03;;;;;;;2.70;1.00;;;21.80;71.00;;;;;;6225540;23;20000;-57
2022/05/22 07:44:29;;;;;;;2.17;0.82;;;;;;;;;;6225536;23;19992;-56
2022/05/22 07:46:55;;;;;;;7.22;1.13;;;;;;;;;;6225589;23;19996;-58
2022/05/22 07:52:08;;;;;;;3.22;1.27;;;21.70;60.40;;;;;;6225653;23;20088;-58
2022/05/22 07:54:39;;;;;;;1.90;1.10;;;21.90;93.10;;;;;;6225503;23;19993;-58
2022/05/22 07:57:05;;;;;;;3.47;1.17;;;21.80;67.40;;;;;;6215463;23;20398;-58
2022/05/22 07:59:38;;;;;;;4.75;1.33;;;21.90;93.20;;;;;;6215186;23;20087;-58
2022/05/22 08:02:07;;;;;;;8.27;1.27;;;21.90;93.00;;;;;;6225347;23;20000;-58
2022/05/22 08:04:33;;;;;;;6.97;1.55;;;;;;;;;;6225323;23;19996;-60
2022/05/22 08:06:59;;;;;;;5.65;0.98;;;21.80;91.60;;;;;;6215401;23;20008;-60
2022/05/22 08:09:25;;;;;;;5.35;0.80;;;21.80;92.80;;;;;;6225326;23;19997;-60
2022/05/22 08:11:51;;;;;;;3.25;1.00;;;;;;;;;;6224804;23;20000;-60
2022/05/22 08:14:17;;;;;;;7.45;1.25;;;;;;;;;;6224570;23;20435;-60
2022/05/22 08:16:43;;;;;;;4.45;1.38;;;21.90;57.50;;;;;;6215335;23;20377;-59
2022/05/22 08:19:10;;;;;;;2.50;0.90;;;;;;;;;;6224963;23;20001;-60
2022/05/22 08:21:35;;;;;;;8.18;1.13;;;21.30;92.60;;;;;;6215244;23;20009;-60
2022/05/22 08:24:01;;;;;;;1.25;1.08;;;;;;;;;;6225128;23;20088;-60
2022/05/22 08:26:28;;;;;;;4.43;1.00;;;;;;;;;;6224703;23;19993;-60
2022/05/22 08:28:54;;;;;;;2.58;0.98;;;21.80;92.60;;;;;;6225402;23;20000;-60
2022/05/22 08:31:20;;;;;;;3.70;1.35;;;;;;;;;;6224985;23;19997;-60
2022/05/22 08:33:46;;;;;;;4.00;1.33;;;;;;;;;;6224960;23;20393;-61
2022/05/22 08:36:12;;;;;;;2.90;1.10;;;;;;;;;;6224958;23;20301;-60
2022/05/22 08:38:38;;;;;;;5.15;0.95;;;;;;;;;;6214784;23;20428;-60
2022/05/22 08:41:20;;;;;;;1.55;0.75;;;22.00;54.90;;;;;;6214648;23;20015;-60
2022/05/22 08:43:47;;;;;;;2.42;0.85;;;;;;;;;;6215069;23;20008;-60
2022/05/22 08:46:26;;;;;;;5.55;0.80;;;22.30;68.60;;;;;;6215056;23;19997;-60
2022/05/22 08:49:00;;;;;;;1.85;0.77;;;22.20;92.30;;;;;;6224921;23;20372;-60
2022/05/22 08:51:50;;;;;;;2.90;0.75;;;22.00;54.70;;;;;;6214685;23;20027;-60
2022/05/22 08:54:30;;;;;;;3.05;0.75;;;22.70;55.10;;;;;;6224763;23;20000;-61
2022/05/22 08:59:47;;;;;;;3.10;0.95;;;22.20;59.10;;;;;;6217488;23;20020;-60
2022/05/22 09:02:30;;;;;;;2.50;0.98;;;22.40;78.00;;;;;;6225448;23;20332;-60
2022/05/22 09:05:08;;;;;;;1.95;0.80;;;22.20;55.00;;;;;;6215964;23;19996;-60
2022/05/22 09:07:54;;;;;;;4.00;0.93;;;22.60;92.80;;;;;;6215861;23;20336;-60
2022/05/22 09:10:25;;;;;;;1.73;0.98;;;22.70;92.70;;;;;;6225775;23;20447;-60
2022/05/22 09:13:11;;;;;;;2.13;0.82;;;22.50;59.60;;;;;;6225405;23;20428;-60
2022/05/22 09:15:46;;;;;;;2.97;0.93;;;22.50;56.50;;;;;;6215847;23;20004;-60
2022/05/22 09:18:28;;;;;;;4.18;0.68;;;22.60;92.40;;;;;;6215490;23;20028;-60
2022/05/22 09:20:56;;;;;;;1.75;0.80;;;22.70;59.30;;;;;;6225054;23;20008;-60
2022/05/22 09:23:31;;;;;;;1.67;0.70;;;23.00;55.20;;;;;;6225441;23;20039;-60
2022/05/22 09:26:14;;;;;;;2.53;0.80;;;23.00;54.80;;;;;;6215873;23;20008;-60
2022/05/22 09:28:51;;;;;;;1.73;0.80;;;23.00;66.30;;;;;;6225045;23;20008;-60
2022/05/22 09:31:41;;;;;;;3.50;0.85;;;23.40;92.30;;;;;;6189082;23;20001;-61
2022/05/22 09:34:34;;;;;;;2.33;0.70;;;23.40;92.20;;;;;;6225613;23;20494;-59
2022/05/22 09:37:11;;;;;;;4.03;0.80;;;23.70;92.00;;;;;;6225351;23;20115;-59
2022/05/22 09:40:19;;;;;;;3.08;0.82;;;23.90;57.80;;;;;;6215030;23;20006;-60
2022/05/22 09:43:21;;;;;;;0.95;0.40;;;23.20;60.30;;;;;;6188542;23;20439;-59
2022/05/22 09:46:01;;;;;;;2.20;0.60;;;23.50;53.70;;;;;;6215783;23;19997;-59
2022/05/22 09:48:36;;;;;;;5.60;0.80;;;23.80;92.10;;;;;;6214878;23;20059;-59
2022/05/22 09:51:39;;;;;;;3.63;0.73;;;24.00;91.90;;;;;;6225248;23;19998;-59
2022/05/22 09:54:13;;;;;;;0.70;0.50;;;23.20;91.70;;;;;;6225533;23;20047;-61
2022/05/22 09:57:08;;;;;;;0.95;0.60;;;23.90;91.60;;;;;;6228435;23;20023;-60
2022/05/22 09:59:40;;;;;;;3.40;0.88;;;24.00;91.90;;;;;;6217732;23;20003;-61
2022/05/22 10:02:23;;;;;;;0.75;0.55;;;24.20;92.00;;;;;;6225612;23;20000;-60
2022/05/22 10:04:51;;;;;;;1.55;0.55;;;;;;;;;;6225550;23;19993;-60
2022/05/22 10:08:02;;;;;;;1.25;0.70;;;24.20;89.70;;;;;;6224678;23;19997;-60
2022/05/22 10:10:28;;;;;;;1.48;0.77;;;;;;;;;;6228794;23;19996;-60
2022/05/22 10:13:18;;;;;;;2.55;0.50;;;24.40;53.30;;;;;;6225850;23;19997;-60
2022/05/22 10:16:07;;;;;;;9.13;0.75;;;24.10;57.00;;;;;;6224872;23;20309;-61
2022/05/22 10:18:53;;;;;;;0.85;0.40;;;24.60;57.20;;;;;;6225613;23;19997;-60
2022/05/22 10:21:19;;;;;;;0.77;0.32;;;;;;;;;;6225078;23;20058;-60
2022/05/22 10:24:03;;;;;;;1.23;0.30;;;23.80;91.00;;;;;;6225012;23;20067;-61
2022/05/22 10:26:59;;;;;;;1.50;0.77;;;24.40;52.60;;;;;;6214102;23;20332;-61
2022/05/22 10:29:48;;;;;;;0.60;0.40;;;24.50;52.50;;;;;;6224476;23;20016;-61
2022/05/22 10:32:45;;;;;;;2.88;0.60;;;23.80;90.60;;;;;;6196083;23;20005;-60
2022/05/22 10:35:37;;;;;;;1.65;0.60;;;24.40;55.50;;;;;;6199322;23;20082;-60
2022/05/22 10:38:11;;;;;;;1.67;0.60;;;24.30;90.60;;;;;;6225273;23;20000;-60
2022/05/22 10:43:31;;;;;;;2.28;0.63;;;24.40;90.60;;;;;;6226607;23;20082;-60
2022/05/22 10:45:57;;;;;;;1.10;0.60;;;24.50;90.70;;;;;;6226311;23;20009;-60
2022/05/22 10:48:23;;;;;;;0.75;0.55;;;24.10;90.50;;;;;;6216584;23;20000;-61
2022/05/22 10:51:03;;;;;;;1.10;0.60;;;24.30;51.70;;;;;;6216593;23;20000;-61
2022/05/22 10:53:34;;;;;;;1.45;0.60;;;24.50;55.20;;;;;;6226403;23;20000;-60
2022/05/22 10:56:21;;;;;;;1.83;0.60;;;23.90;90.40;;;;;;6216617;23;20000;-60
2022/05/22 10:59:00;;;;;;;2.25;0.75;;;24.10;90.50;;;;;;6226197;23;20057;-60
2022/05/22 11:01:31;;;;;;;0.93;0.60;;;24.70;90.70;;;;;;6226130;23;20019;-60
2022/05/22 11:04:32;;;;;;;1.23;0.63;;;23.90;90.40;;;;;;6226152;23;20457;-61
2022/05/22 11:07:01;;;;;;;1.10;0.80;;;24.30;55.30;;;;;;6215772;23;19997;-60
2022/05/22 11:09:30;;;;;;;1.58;0.60;;;24.30;54.30;;;;;;6225870;23;20072;-60
2022/05/22 11:12:20;;;;;;;1.95;0.55;;;24.70;90.50;;;;;;6225917;23;20004;-60
2022/05/22 11:14:46;;;;;;;3.03;0.60;;;24.30;90.20;;;;;;6216365;23;20016;-60
2022/05/22 11:17:22;;;;;;;2.63;0.70;;;24.30;51.20;;;;;;6215574;23;19997;-60
2022/05/22 11:19:51;;;;;;;0.60;0.50;;;24.40;54.80;;;;;;6225818;23;20079;-60
2022/05/22 11:22:40;;;;;;;2.28;0.47;;;24.40;51.10;;;;;;6225874;23;20001;-60
2022/05/22 11:25:26;;;;;;;1.55;0.50;;;24.30;51.10;;;;;;6225868;23;20435;-60
2022/05/22 11:28:10;;;;;;;2.95;0.60;;;23.90;53.60;;;;;;6215386;23;20039;-60
2022/05/22 11:30:47;;;;;;;1.70;0.65;;;23.90;90.20;;;;;;6215765;23;20076;-60
2022/05/22 11:33:39;;;;;;;1.65;0.68;;;24.00;90.10;;;;;;6225912;23;20428;-48
2022/05/22 11:36:04;;;;;;;2.65;0.57;;;;;;;;;;6214686;23;20036;-48
2022/05/22 11:39:02;;;;;;;1.38;0.43;;;24.00;51.00;;;;;;6225597;23;20003;-48
2022/05/22 11:41:38;;;;;;;1.60;0.85;;;24.40;90.40;;;;;;6225386;23;20074;-49
2022/05/22 11:44:04;;;;;;;1.38;0.60;;;;;;;;;;6188955;23;19993;-49
2022/05/22 11:46:49;;;;;;;2.17;0.70;;;24.40;90.30;;;;;;6216107;23;20004;-48
2022/05/22 11:49:39;;;;;;;2.88;0.70;;;24.00;68.50;;;;;;6215002;23;20004;-48
2022/05/22 11:55:36;;;;;;;2.08;0.60;;;24.00;57.30;;;;;;6215718;23;19953;-51
2022/05/22 11:58:02;;;;;;;3.55;0.85;;;;;;;;;;6225576;23;20004;-49
2022/05/22 12:00:28;;;;;;;5.90;1.02;;;24.20;89.40;;;;;;6225417;23;20008;-47
2022/05/22 12:03:09;;;;;;;1.90;0.70;;;23.80;89.00;;;;;;6225760;23;20090;-51
2022/05/22 12:06:14;;;;;;;3.22;0.93;;;24.00;89.00;;;;;;6225653;23;20004;-50
2022/05/22 12:08:47;;;;;;;2.20;0.98;;;24.20;53.50;;;;;;6149550;23;20371;-51
2022/05/22 12:11:30;;;;;;;3.55;0.80;;;24.00;76.80;;;;;;6225749;23;20028;-47
2022/05/22 12:14:22;;;;;;;1.52;0.90;;;24.20;53.10;;;;;;6225716;23;20001;-49
2022/05/22 12:17:29;;;;;;;4.10;0.95;;;23.80;88.80;;;;;;6225682;23;20164;-50
2022/05/22 12:20:22;;;;;;;4.07;1.00;;;24.20;88.90;;;;;;6215761;23;20373;-48
2022/05/22 12:23:21;;;;;;;4.72;0.82;;;23.70;88.40;;;;;;6225679;23;20039;-50
2022/05/22 12:25:52;;;;;;;4.47;0.65;;;23.90;65.60;;;;;;6225531;23;20335;-50
2022/05/22 12:28:35;;;;;;;5.00;1.27;;;24.40;88.80;;;;;;6225319;23;20092;-50
2022/05/22 12:31:05;;;;;;;3.22;0.80;;;24.40;88.70;;;;;;6215529;23;20005;-51
2022/05/22 12:33:33;;;;;;;4.85;1.23;;;24.10;88.80;;;;;;6225478;23;20004;-50
2022/05/22 12:36:00;;;;;;;6.40;1.10;;;24.20;88.50;;;;;;6215773;23;20336;-50
2022/05/22 12:38:26;;;;;;;5.25;0.95;;;24.10;88.40;;;;;;6225510;23;20087;-48
2022/05/22 12:41:10;;;;;;;2.08;0.70;;;23.80;88.00;;;;;;6225366;23;20640;-48
2022/05/22 12:43:36;;;;;;;4.10;0.98;;;24.40;88.50;;;;;;6215723;23;20144;-52
2022/05/22 12:46:05;;;;;;;2.10;0.75;;;24.10;52.50;;;;;;6225459;23;20063;-50
2022/05/22 12:48:33;;;;;;;1.88;0.70;;;23.60;55.30;;;;;;6225204;23;19993;-61
2022/05/22 12:51:08;;;;;;;3.00;0.73;;;23.90;87.20;;;;;;6215362;23;20051;-61
2022/05/22 12:53:36;;;;;;;3.53;0.90;;;24.10;69.90;;;;;;6225091;23;20459;-61
2022/05/22 12:56:18;;;;;;;1.90;0.75;;;24.20;87.60;;;;;;6214863;23;20458;-59
2022/05/22 12:58:51;;;;;;;2.28;0.82;;;23.60;86.80;;;;;;6215346;23;20329;-60
2022/05/22 13:01:28;;;;;;;3.22;0.90;;;23.90;82.20;;;;;;6224660;23;20008;-60
2022/05/22 13:04:37;;;;;;;2.13;0.65;;;24.10;49.40;;;;;;6225061;23;20000;-60
2022/05/22 13:07:11;;;;;;;3.28;0.98;;;21.30;48.00;;;;;;6153798;23;20000;-50
2022/05/22 13:09:42;;;;;;;4.10;0.95;;;24.20;87.40;;;;;;6225172;23;19993;-51
2022/05/22 13:12:15;;;;;;;2.05;0.90;;;24.00;49.40;;;;;;6215135;23;20001;-51
2022/05/22 13:14:41;;;;;;;2.95;0.80;;;;;;;;;;6224584;23;20491;-50
2022/05/22 13:17:10;;;;;;;2.13;0.80;;;24.30;87.10;;;;;;6224734;23;20067;-49
2022/05/22 13:19:51;;;;;;;5.25;1.00;;;24.00;51.70;;;;;;6198593;23;20008;-49
2022/05/22 13:22:45;;;;;;;2.08;0.88;;;23.80;53.40;;;;;;6224892;23;20335;-50
2022/05/22 13:25:44;;;;;;;3.40;0.90;;;23.90;86.70;;;;;;6192698;23;20350;-53
2022/05/22 13:28:21;;;;;;;2.83;0.80;;;24.80;49.90;;;;;;6206241;23;20016;-51
2022/05/22 13:30:54;;;;;;;3.30;1.27;;;24.00;86.80;;;;;;6224735;23;20000;-50
2022/05/22 13:33:20;;;;;;;2.55;0.85;;;;;;;;;;6224800;23;19996;-51
2022/05/22 13:35:56;;;;;;;3.92;0.90;;;24.00;49.50;;;;;;6224632;23;20042;-48
2022/05/22 13:38:22;;;;;;;2.13;0.90;;;23.90;86.90;;;;;;6224469;23;19997;-50
2022/05/22 13:41:08;;;;;;;2.05;0.95;;;24.00;49.50;;;;;;6214831;23;20015;-50
2022/05/22 13:44:01;;;;;;;3.78;1.08;;;23.70;49.90;;;;;;6224647;23;19996;-49
2022/05/22 13:46:50;;;;;;;2.28;0.82;;;23.80;86.40;;;;;;6224580;23;19999;-50
2022/05/22 13:49:48;;;;;;;2.72;1.02;;;23.70;87.00;;;;;;6213581;23;20014;-51
2022/05/22 13:52:41;;;;;;;1.90;0.80;;;24.00;49.70;;;;;;6224605;23;20000;-50
2022/05/22 13:55:17;;;;;;;3.75;0.75;;;24.10;87.10;;;;;;6224492;23;19996;-51
2022/05/22 13:58:13;;;;;;;1.90;0.75;;;23.70;77.80;;;;;;6197698;23;20001;-50